Time;durP1;ratioP1;P1;durP2;ratioP2;P2;SDS_P1;SDS_P2;PMS_P1;PMS_P2;Temp;Humidity;BMP_temperature;BMP_pressure;BME280_temperature;BME280_humidity;BME280_pressure;Samples;Min_cycle;Max_cycle;Signal;HPM_P1;HPM_P2
2021/12/12 00:02:45;;;;;;;11.23;2.42;;;;;;;;;;5097078;28;20023;-75
2021/12/12 00:05:12;;;;;;;10.60;3.05;;;;;;;;;;5084312;27;20053;-73
2021/12/12 00:07:38;;;;;;;14.98;3.30;;;;;;;;;;5078253;28;20119;-73
2021/12/12 00:10:09;;;;;;;18.55;4.68;;;;;;;;;;5099035;27;20056;-74
2021/12/12 00:12:42;;;;;;;9.68;3.00;;;;;;;;;;5101198;27;20157;-74
2021/12/12 00:15:08;;;;;;;13.20;3.00;;;;;;;;;;5095988;28;20040;-74
2021/12/12 00:17:35;;;;;;;12.45;3.60;;;;;;;;;;5098796;28;20046;-74
2021/12/12 00:20:01;;;;;;;18.38;3.58;;;;;;;;;;5094982;28;20544;-74
2021/12/12 00:22:28;;;;;;;15.73;7.72;;;;;;;;;;5101134;28;20498;-75
2021/12/12 00:24:55;;;;;;;15.57;5.75;;;;;;;;;;5095941;28;20127;-74
2021/12/12 00:27:22;;;;;;;17.77;3.88;;;;;;;;;;5098649;28;20028;-74
2021/12/12 00:29:48;;;;;;;8.73;2.42;;;;;;;;;;5097082;28;20062;-74
2021/12/12 00:32:16;;;;;;;8.20;2.10;;;;;;;;;;5098368;28;20099;-74
2021/12/12 00:34:53;;;;;;;4.70;1.00;;;;;;;;;;5097666;28;20027;-74
2021/12/12 00:37:20;;;;;;;5.32;1.30;;;;;;;;;;5095435;28;20703;-75
2021/12/12 00:39:50;;;;;;;3.65;1.08;;;;;;;;;;5079126;28;20020;-74
2021/12/12 00:42:18;;;;;;;4.65;1.27;;;;;;;;;;5094021;28;20032;-75
2021/12/12 00:44:46;;;;;;;6.72;1.65;;;;;;;;;;5081562;28;20020;-74
2021/12/12 00:47:12;;;;;;;8.48;2.13;;;;;;;;;;5094074;28;20024;-74
2021/12/12 00:49:40;;;;;;;5.65;1.17;;;;;;;;;;5097432;28;20026;-74
2021/12/12 00:52:07;;;;;;;4.53;1.30;;;;;;;;;;5093901;28;20028;-74
2021/12/12 00:54:34;;;;;;;5.95;1.20;;;;;;;;;;5097902;28;20024;-75
2021/12/12 00:57:04;;;;;;;6.47;1.30;;;;;;;;;;5093853;28;20028;-74
2021/12/12 00:59:31;;;;;;;3.58;1.10;;;;;;;;;;5095874;28;20020;-74
2021/12/12 01:01:58;;;;;;;8.93;1.73;;;;;;;;;;5097914;28;20102;-74
2021/12/12 01:04:26;;;;;;;7.50;1.67;;;;;;;;;;5092944;28;20040;-74
2021/12/12 01:06:54;;;;;;;5.90;1.88;;;;;;;;;;5081968;28;20023;-74
2021/12/12 01:09:22;;;;;;;7.18;1.55;;;;;;;;;;5079823;28;20032;-74
2021/12/12 01:11:51;;;;;;;5.13;1.35;;;;;;;;;;5100250;28;20016;-74
2021/12/12 01:14:19;;;;;;;7.28;2.00;;;;;;;;;;5100870;28;20027;-74
2021/12/12 01:16:51;;;;;;;9.82;1.60;;;;;;;;;;5100104;28;20043;-74
2021/12/12 01:19:17;;;;;;;;;;;;;;;;;;5097184;28;20515;-74
2021/12/12 01:21:46;;;;;;;5.95;1.75;;;;;;;;;;5096749;28;20006;-73
2021/12/12 01:24:25;;;;;;;7.38;2.03;;;;;;;;;;5096419;28;20025;-74
2021/12/12 01:26:53;;;;;;;10.15;2.10;;;;;;;;;;5097233;28;20062;-74
2021/12/12 01:29:20;;;;;;;15.27;3.15;;;;;;;;;;5096739;28;20112;-74
2021/12/12 01:31:47;;;;;;;10.65;2.58;;;;;;;;;;5100267;28;20021;-74
2021/12/12 01:34:15;;;;;;;17.25;4.03;;;;;;;;;;5097042;28;20020;-74
2021/12/12 01:37:09;;;;;;;23.48;4.28;;;;;;;;;;5096533;28;20138;-75
2021/12/12 01:39:43;;;;;;;9.40;2.75;;;;;;;;;;5100077;28;20024;-74
2021/12/12 01:42:09;;;;;;;11.65;2.67;;;;;;;;;;5095664;28;20041;-74
2021/12/12 01:44:45;;;;;;;12.88;2.40;;;;;;;;;;5097450;28;20491;-75
2021/12/12 01:47:16;;;;;;;9.38;3.00;;;;;;;;;;5098773;28;20112;-74
2021/12/12 01:49:44;;;;;;;16.73;4.13;;;;;;;;;;5098058;28;20051;-75
2021/12/12 01:52:12;;;;;;;11.43;2.97;;;;;;;;;;5095752;28;20019;-74
2021/12/12 01:54:45;;;;;;;10.93;3.20;;;;;;;;;;5075922;28;20034;-73
2021/12/12 01:57:14;;;;;;;18.35;4.15;;;;;;;;;;5102328;28;20026;-74
2021/12/12 01:59:41;;;;;;;13.90;2.75;;;;;;;;;;5097255;28;20043;-74
2021/12/12 02:02:37;;;;;;;21.23;4.13;;;;;;;;;;5096124;28;20089;-74
2021/12/12 02:05:09;;;;;;;18.70;3.28;;;;;;;;;;5077783;28;20448;-74
2021/12/12 02:07:37;;;;;;;12.05;3.17;;;;;;;;;;5083186;28;20028;-74
2021/12/12 02:10:08;;;;;;;9.82;2.85;;;;;;;;;;5101574;28;20076;-74
2021/12/12 02:12:34;;;;;;;11.68;2.85;;;;;;;;;;5098147;28;20047;-74
2021/12/12 02:15:01;;;;;;;11.45;2.75;;;;;;;;;;5100702;28;20189;-74
2021/12/12 02:17:34;;;;;;;11.18;2.40;;;;;;;;;;5095638;28;20020;-74
2021/12/12 02:20:13;;;;;;;7.10;2.10;;;;;;;;;;5099342;28;20027;-74
2021/12/12 02:22:56;;;;;;;10.02;2.45;;;;;;;;;;5097308;28;20028;-75
2021/12/12 02:36:25;;;;;;;8.82;2.50;;;;;;;;;;5092744;28;20070;-73
2021/12/12 02:38:52;;;;;;;17.20;3.38;;;;;;;;;;5088601;28;20389;-73
2021/12/12 02:41:19;;;;;;;13.13;2.88;;;;;;;;;;5096552;28;20119;-74
2021/12/12 02:43:47;;;;;;;6.78;2.05;;;;;;;;;;5088877;28;20101;-74
2021/12/12 02:46:17;;;;;;;10.73;2.25;;;;;;;;;;5094113;28;20032;-74
2021/12/12 02:48:44;;;;;;;14.10;4.28;;;;;;;;;;5090746;28;20028;-74
2021/12/12 02:51:12;;;;;;;10.52;2.92;;;;;;;;;;5100857;28;20311;-75
2021/12/12 02:53:44;;;;;;;11.02;3.13;;;;;;;;;;5092072;28;20029;-74
2021/12/12 02:56:17;;;;;;;12.20;2.90;;;;;;;;;;5092910;28;20144;-74
2021/12/12 02:58:44;;;;;;;10.63;3.00;;;;;;;;;;5090624;28;20066;-74
2021/12/12 03:01:10;;;;;;;11.48;2.72;;;;;;;;;;5094693;28;20483;-74
2021/12/12 03:03:38;;;;;;;17.92;2.75;;;;;;;;;;5079509;28;20604;-73
2021/12/12 03:06:06;;;;;;;18.50;4.38;;;;;;;;;;5093773;28;20415;-74
2021/12/12 03:08:33;;;;;;;8.60;2.47;;;;;;;;;;5091677;28;20034;-74
2021/12/12 03:10:59;;;;;;;15.63;3.00;;;;;;;;;;5096730;28;20484;-73
2021/12/12 03:13:26;;;;;;;12.50;3.50;;;;;;;;;;5094132;28;20039;-73
2021/12/12 03:15:52;;;;;;;10.82;2.53;;;;;;;;;;5093440;28;20054;-74
2021/12/12 03:18:24;;;;;;;8.25;2.40;;;;;;;;;;5093689;28;20495;-73
2021/12/12 03:20:52;;;;;;;10.75;3.17;;;;;;;;;;5092795;28;20531;-73
2021/12/12 03:23:21;;;;;;;12.73;2.88;;;;;;;;;;5096883;28;20063;-75
2021/12/12 03:25:49;;;;;;;14.13;3.25;;;;;;;;;;5092596;28;20084;-73
2021/12/12 03:28:16;;;;;;;10.75;2.65;;;;;;;;;;5095964;28;20102;-73
2021/12/12 03:30:44;;;;;;;12.13;3.03;;;;;;;;;;5092625;28;20487;-74
2021/12/12 03:33:10;;;;;;;16.40;3.38;;;;;;;;;;5097389;28;20095;-74
2021/12/12 03:35:36;;;;;;;13.40;3.38;;;;;;;;;;5097009;28;20670;-74
2021/12/12 03:38:03;;;;;;;17.17;3.20;;;;;;;;;;5094962;28;20082;-74
2021/12/12 03:40:31;;;;;;;11.25;3.17;;;;;;;;;;5096279;28;20499;-74
2021/12/12 03:42:59;;;;;;;10.98;2.95;;;;;;;;;;5091437;28;20035;-74
2021/12/12 03:45:26;;;;;;;21.30;3.35;;;;;;;;;;5095969;28;20077;-74
2021/12/12 03:48:07;;;;;;;10.40;3.03;;;;;;;;;;5093480;28;20024;-74
2021/12/12 03:50:35;;;;;;;11.75;2.55;;;;;;;;;;5096003;28;20266;-73
2021/12/12 03:53:01;;;;;;;8.38;3.10;;;;;;;;;;5097059;28;20030;-74
2021/12/12 03:55:28;;;;;;;10.30;2.72;;;;;;;;;;5095461;28;20275;-74
2021/12/12 03:57:54;;;;;;;18.40;3.10;;;;;;;;;;5090523;28;20019;-74
2021/12/12 04:00:25;;;;;;;15.25;2.83;;;;;;;;;;5093647;28;20035;-74
2021/12/12 04:02:51;;;;;;;11.82;2.65;;;;;;;;;;5091003;28;20484;-72
2021/12/12 04:05:17;;;;;;;10.68;2.88;;;;;;;;;;5090370;28;20083;-74
2021/12/12 04:07:44;;;;;;;8.63;2.53;;;;;;;;;;5094782;28;20016;-74
2021/12/12 04:10:12;;;;;;;10.80;2.28;;;;;;;;;;5072763;28;20024;-74
2021/12/12 04:12:39;;;;;;;7.55;2.10;;;;;;;;;;5092703;28;20064;-73
2021/12/12 04:15:06;;;;;;;14.38;2.83;;;;;;;;;;5096890;28;20036;-73
2021/12/12 04:17:32;;;;;;;8.63;2.35;;;;;;;;;;5090530;28;20036;-74
2021/12/12 04:20:00;;;;;;;12.43;2.63;;;;;;;;;;5093736;28;20024;-74
2021/12/12 04:22:26;;;;;;;9.38;2.50;;;;;;;;;;5090909;28;20039;-73
2021/12/12 04:24:54;;;;;;;12.57;2.75;;;;;;;;;;5088556;28;20024;-74
2021/12/12 04:27:22;;;;;;;6.90;2.88;;;;;;;;;;5092302;28;20028;-74
2021/12/12 04:29:49;;;;;;;7.63;2.65;;;;;;;;;;5074654;28;20036;-73
2021/12/12 04:32:26;;;;;;;11.23;2.72;;;;;;;;;;5092280;28;20076;-74
2021/12/12 04:34:55;;;;;;;11.30;2.83;;;;;;;;;;5092709;28;20468;-73
2021/12/12 04:37:22;;;;;;;12.30;2.90;;;;;;;;;;5095763;28;20028;-74
2021/12/12 04:39:53;;;;;;;9.85;2.67;;;;;;;;;;5093957;28;20590;-73
2021/12/12 04:42:20;;;;;;;10.43;2.88;;;;;;;;;;5099299;28;20134;-74
2021/12/12 04:44:51;;;;;;;7.05;2.38;;;;;;;;;;5092922;28;20020;-74
2021/12/12 04:50:28;;;;;;;17.10;3.03;;;;;;;;;;5092189;28;20081;-73
2021/12/12 04:52:59;;;;;;;9.65;2.72;;;;;;;;;;5091779;28;20650;-73
2021/12/12 04:55:31;;;;;;;13.90;3.10;;;;;;;;;;5094801;28;20067;-73
2021/12/12 04:57:57;;;;;;;;;;;;;;;;;;5095377;28;20495;-74
2021/12/12 05:00:28;;;;;;;16.00;2.72;;;;;;;;;;5091338;28;19954;-73
2021/12/12 05:03:13;;;;;;;15.52;3.30;;;;;;;;;;5093861;28;20024;-74
2021/12/12 05:06:14;;;;;;;5.50;2.38;;;;;;;;;;5089906;28;20115;-73
2021/12/12 05:08:44;;;;;;;6.68;2.30;;;;;;;;;;4999892;28;20037;-73
2021/12/12 05:11:31;;;;;;;9.43;2.10;;;;;;;;;;5076416;28;20410;-73
2021/12/12 05:14:03;;;;;;;11.25;2.63;;;;;;;;;;5095668;28;20034;-73
2021/12/12 05:16:31;;;;;;;12.65;2.95;;;;;;;;;;5092341;28;20044;-73
2021/12/12 05:19:04;;;;;;;12.32;2.25;;;;;;;;;;5095622;28;20024;-73
2021/12/12 05:21:32;;;;;;;8.85;2.40;;;;;;;;;;5095060;28;20031;-74
2021/12/12 05:24:00;;;;;;;8.23;2.15;;;;;;;;;;5093126;28;20043;-72
2021/12/12 05:26:30;;;;;;;10.55;2.33;;;;;;;;;;5090734;28;20031;-74
2021/12/12 05:29:01;;;;;;;16.10;2.50;;;;;;;;;;5093591;28;20601;-73
2021/12/12 05:31:29;;;;;;;8.38;2.28;;;;;;;;;;5092134;28;20032;-73
2021/12/12 05:33:55;;;;;;;9.98;2.10;;;;;;;;;;5090300;28;20032;-73
2021/12/12 05:36:22;;;;;;;11.15;2.17;;;;;;;;;;5088875;28;20167;-73
2021/12/12 05:38:48;;;;;;;10.25;2.88;;;;;;;;;;5088124;28;20036;-73
2021/12/12 05:41:18;;;;;;;9.27;2.47;;;;;;;;;;5087674;28;20043;-74
2021/12/12 05:43:45;;;;;;;10.85;3.60;;;;;;;;;;5072897;28;20169;-74
2021/12/12 05:46:15;;;;;;;8.50;2.55;;;;;;;;;;5089783;28;20023;-74
2021/12/12 05:48:42;;;;;;;8.40;2.15;;;;;;;;;;5088667;28;20031;-73
2021/12/12 05:51:08;;;;;;;10.32;2.70;;;;;;;;;;5089029;28;20036;-73
2021/12/12 05:53:34;;;;;;;13.93;2.88;;;;;;;;;;5087994;28;20039;-73
2021/12/12 05:56:00;;;;;;;14.23;2.85;;;;;;;;;;5087566;28;20036;-73
2021/12/12 05:58:27;;;;;;;13.63;2.85;;;;;;;;;;5092556;28;20338;-74
2021/12/12 06:00:56;;;;;;;12.77;3.38;;;;;;;;;;5089828;28;20035;-73
2021/12/12 06:03:24;;;;;;;9.60;2.67;;;;;;;;;;5088031;28;20081;-73
2021/12/12 06:05:51;;;;;;;14.65;2.42;;;;;;;;;;5088073;28;20048;-73
2021/12/12 06:08:19;;;;;;;8.48;2.42;;;;;;;;;;5089038;28;20028;-73
2021/12/12 06:10:46;;;;;;;9.82;2.47;;;;;;;;;;5093363;28;20387;-73
2021/12/12 06:13:13;;;;;;;10.23;2.78;;;;;;;;;;5092342;28;20118;-74
2021/12/12 06:15:40;;;;;;;7.88;2.05;;;;;;;;;;5090024;28;20414;-74
2021/12/12 06:18:07;;;;;;;12.50;2.92;;;;;;;;;;5090459;28;20019;-74
2021/12/12 06:20:33;;;;;;;12.68;3.03;;;;;;;;;;5090852;28;20028;-74
2021/12/12 06:23:00;;;;;;;10.27;2.13;;;;;;;;;;5091580;28;20423;-73
2021/12/12 06:25:27;;;;;;;12.90;3.17;;;;;;;;;;5089664;28;20479;-74
2021/12/12 06:27:53;;;;;;;11.98;2.50;;;;;;;;;;5088791;28;20028;-74
2021/12/12 06:30:21;;;;;;;10.38;2.58;;;;;;;;;;5092990;28;20178;-73
2021/12/12 06:32:48;;;;;;;9.90;2.50;;;;;;;;;;5076556;28;20426;-74
2021/12/12 06:35:15;;;;;;;8.80;2.45;;;;;;;;;;5090594;28;20047;-73
2021/12/12 06:37:44;;;;;;;7.10;2.15;;;;;;;;;;5090760;28;20037;-73
2021/12/12 06:40:12;;;;;;;8.15;3.00;;;;;;;;;;5091699;28;20117;-74
2021/12/12 06:42:39;;;;;;;13.45;3.40;;;;;;;;;;5068838;28;20383;-73
2021/12/12 06:45:09;;;;;;;12.63;2.72;;;;;;;;;;5089438;28;20036;-74
2021/12/12 06:47:35;;;;;;;9.07;2.10;;;;;;;;;;5092985;28;20039;-73
2021/12/12 06:50:02;;;;;;;6.10;2.20;;;;;;;;;;5087767;28;20035;-74
2021/12/12 06:52:28;;;;;;;7.40;2.13;;;;;;;;;;5089908;28;20027;-74
2021/12/12 06:54:54;;;;;;;5.35;2.05;;;;;;;;;;5089920;28;20031;-73
2021/12/12 06:57:21;;;;;;;5.50;1.80;;;;;;;;;;5095584;28;20040;-73
2021/12/12 06:59:48;;;;;;;8.93;2.40;;;;;;;;;;5095174;28;20057;-73
2021/12/12 07:02:15;;;;;;;10.43;2.97;;;;;;;;;;5095253;28;20030;-73
2021/12/12 07:04:43;;;;;;;5.07;1.77;;;;;;;;;;5097491;28;20495;-73
2021/12/12 07:07:10;;;;;;;8.73;1.63;;;;;;;;;;5094554;28;20032;-74
2021/12/12 07:09:37;;;;;;;5.68;1.95;;;;;;;;;;5097902;28;20126;-74
2021/12/12 07:12:08;;;;;;;9.25;1.83;;;;;;;;;;5094782;28;20031;-74
2021/12/12 07:14:36;;;;;;;5.45;1.75;;;;;;;;;;5099692;28;20023;-73
2021/12/12 07:17:03;;;;;;;9.13;1.83;;;;;;;;;;5098355;28;20119;-74
2021/12/12 07:19:29;;;;;;;8.82;2.50;;;;;;;;;;5097298;28;20016;-73
2021/12/12 07:21:59;;;;;;;8.95;1.95;;;;;;;;;;5094405;28;20024;-73
2021/12/12 07:24:26;;;;;;;5.15;2.10;;;;;;;;;;5092995;28;20016;-74
2021/12/12 07:26:53;;;;;;;11.57;2.08;;;;;;;;;;5096225;28;20016;-74
2021/12/12 07:29:19;;;;;;;10.25;2.25;;;;;;;;;;5094594;28;20039;-73
2021/12/12 07:31:45;;;;;;;7.95;2.00;;;;;;;;;;5093396;28;20024;-74
2021/12/12 07:34:13;;;;;;;4.88;1.67;;;;;;;;;;5081010;28;20020;-74
2021/12/12 07:36:42;;;;;;;6.00;2.10;;;;;;;;;;5094264;28;20031;-73
2021/12/12 07:39:12;;;;;;;8.73;2.47;;;;;;;;;;5096205;28;20039;-74
2021/12/12 07:41:39;;;;;;;4.88;1.73;;;;;;;;;;5094600;28;20035;-74
2021/12/12 07:44:07;;;;;;;6.60;1.95;;;;;;;;;;5095581;28;20425;-73
2021/12/12 07:46:33;;;;;;;7.63;1.65;;;;;;;;;;5094037;28;20020;-74
2021/12/12 07:49:00;;;;;;;6.53;2.05;;;;;;;;;;5093950;28;20016;-73
2021/12/12 07:51:27;;;;;;;7.60;1.88;;;;;;;;;;5093721;28;20028;-73
2021/12/12 07:53:55;;;;;;;8.00;2.35;;;;;;;;;;5093853;28;20073;-74
2021/12/12 07:56:22;;;;;;;12.65;1.80;;;;;;;;;;5092326;28;20036;-76
2021/12/12 07:58:49;;;;;;;9.52;1.80;;;;;;;;;;5095403;28;20024;-73
2021/12/12 08:01:15;;;;;;;9.38;2.30;;;;;;;;;;5096045;28;20527;-74
2021/12/12 08:03:42;;;;;;;9.07;2.10;;;;;;;;;;5081152;28;20493;-74
2021/12/12 08:06:09;;;;;;;5.53;2.05;;;;;;;;;;5094772;28;20043;-74
2021/12/12 08:08:35;;;;;;;6.72;2.15;;;;;;;;;;5093523;28;20027;-74
2021/12/12 08:11:04;;;;;;;17.30;2.45;;;;;;;;;;5092908;28;20058;-74
2021/12/12 08:13:32;;;;;;;6.82;2.15;;;;;;;;;;5091839;28;20031;-75
2021/12/12 08:16:00;;;;;;;9.25;2.47;;;;;;;;;;5098447;28;20043;-74
2021/12/12 08:18:26;;;;;;;7.68;2.75;;;;;;;;;;5072600;28;20435;-75
2021/12/12 08:20:53;;;;;;;8.85;2.03;;;;;;;;;;5094595;28;20437;-72
2021/12/12 08:23:20;;;;;;;5.40;1.60;;;;;;;;;;5093786;28;20024;-75
2021/12/12 08:25:47;;;;;;;8.80;2.78;;;;;;;;;;5093085;28;20024;-76
2021/12/12 08:28:14;;;;;;;8.27;2.90;;;;;;;;;;5094053;28;20049;-75
2021/12/12 08:30:40;;;;;;;9.00;3.17;;;;;;;;;;5099160;28;20043;-77
2021/12/12 08:33:07;;;;;;;8.23;3.00;;;;;;;;;;5096184;28;20168;-75
2021/12/12 08:35:34;;;;;;;8.02;2.88;;;;;;;;;;5096129;28;20118;-74
2021/12/12 08:38:01;;;;;;;8.07;2.78;;;;;;;;;;5090792;28;20576;-77
2021/12/12 08:40:29;;;;;;;12.38;2.88;;;;;;;;;;5094505;28;20030;-75
2021/12/12 08:42:55;;;;;;;9.35;2.97;;;;;;;;;;5092619;28;20024;-74
2021/12/12 08:45:26;;;;;;;12.32;2.70;;;;;;;;;;5099680;28;20031;-74
2021/12/12 08:47:52;;;;;;;8.60;3.38;;;;;;;;;;5092663;27;20050;-76
2021/12/12 08:50:21;;;;;;;6.85;2.50;;;;;;;;;;5096513;28;20035;-73
2021/12/12 08:52:48;;;;;;;6.57;2.50;;;;;;;;;;5089715;28;20076;-75
2021/12/12 08:55:19;;;;;;;8.13;2.67;;;;;;;;;;5093660;28;20035;-72
2021/12/12 08:57:59;;;;;;;6.75;2.92;;;;;;;;;;5072884;28;20042;-74
2021/12/12 09:00:28;;;;;;;6.22;1.98;;;;;;;;;;5093122;28;20028;-73
2021/12/12 09:02:56;;;;;;;5.90;2.10;;;;;;;;;;5092740;28;20078;-75
2021/12/12 09:05:24;;;;;;;3.15;1.50;;;;;;;;;;5094638;28;21171;-74
2021/12/12 09:07:52;;;;;;;6.22;1.88;;;;;;;;;;5091344;28;20038;-74
2021/12/12 09:10:18;;;;;;;6.28;2.17;;;;;;;;;;5092632;28;20427;-75
2021/12/12 09:12:49;;;;;;;8.18;2.55;;;;;;;;;;5095479;28;20043;-75
2021/12/12 09:15:17;;;;;;;6.80;2.42;;;;;;;;;;5097929;28;20372;-74
2021/12/12 09:17:53;;;;;;;6.28;2.38;;;;;;;;;;5074911;28;20042;-74
2021/12/12 09:20:31;;;;;;;8.65;3.10;;;;;;;;;;5096851;28;20027;-72
2021/12/12 09:23:01;;;;;;;5.55;3.05;;;;;;;;;;5091645;28;20103;-72
2021/12/12 09:25:36;;;;;;;6.53;2.45;;;;;;;;;;5091642;28;20130;-74
2021/12/12 09:28:23;;;;;;;11.02;3.15;;;;;;;;;;5094621;28;20518;-73
2021/12/12 09:30:50;;;;;;;7.85;3.17;;;;;;;;;;5078724;28;20137;-74
2021/12/12 09:33:32;;;;;;;6.80;2.78;;;;;;;;;;5092721;28;20539;-75
2021/12/12 09:36:03;;;;;;;12.07;2.95;;;;;;;;;;5087933;28;20044;-74
2021/12/12 09:38:31;;;;;;;8.75;2.80;;;;;;;;;;5088534;28;20251;-72
2021/12/12 09:40:57;;;;;;;10.90;2.67;;;;;;;;;;5088243;28;20065;-75
2021/12/12 09:43:33;;;;;;;8.55;2.88;;;;;;;;;;5090962;28;20050;-74
2021/12/12 09:46:20;;;;;;;10.45;3.25;;;;;;;;;;5088246;28;20027;-73
2021/12/12 09:51:59;;;;;;;18.73;7.65;;;;;;;;;;5064556;28;20537;-73
2021/12/12 09:54:34;;;;;;;12.25;6.25;;;;;;;;;;5086439;28;20032;-75
2021/12/12 09:57:06;;;;;;;7.55;4.55;;;;;;;;;;5089119;28;20074;-72
2021/12/12 09:59:48;;;;;;;11.90;5.00;;;;;;;;;;5091759;28;20028;-74
2021/12/12 10:02:23;;;;;;;9.35;4.00;;;;;;;;;;5089011;28;20100;-73
2021/12/12 10:05:12;;;;;;;7.85;3.22;;;;;;;;;;5091558;28;20040;-73
2021/12/12 10:07:54;;;;;;;7.97;2.60;;;;;;;;;;5072951;28;20460;-74
2021/12/12 10:10:29;;;;;;;9.57;2.35;;;;;;;;;;5087361;28;20031;-72
2021/12/12 10:13:21;;;;;;;8.48;2.55;;;;;;;;;;5090670;28;20027;-73
2021/12/12 10:15:53;;;;;;;5.90;2.63;;;;;;;;;;5056656;28;20047;-74
2021/12/12 10:18:25;;;;;;;10.25;2.85;;;;;;;;;;5090493;28;20127;-72
2021/12/12 10:21:09;;;;;;;8.52;2.75;;;;;;;;;;5091633;28;20495;-72
2021/12/12 10:23:44;;;;;;;7.95;2.47;;;;;;;;;;5090395;28;20575;-74
2021/12/12 10:26:21;;;;;;;8.30;2.65;;;;;;;;;;5086781;28;20037;-73
2021/12/12 10:28:56;;;;;;;9.13;2.08;;;;;;;;;;5096553;28;20028;-73
2021/12/12 10:31:39;;;;;;;10.50;2.55;;;;;;;;;;5091576;28;20527;-72
2021/12/12 10:34:09;;;;;;;10.00;2.72;;;;;;;;;;5098830;28;20027;-74
2021/12/12 10:36:54;;;;;;;6.97;2.42;;;;;;;;;;5092395;28;20040;-75
2021/12/12 10:39:30;;;;;;;11.75;3.58;;;;;;;;;;5091509;28;20043;-72
2021/12/12 10:41:59;;;;;;;4.35;2.30;;;;;;;;;;5094948;28;20023;-75
2021/12/12 10:44:46;;;;;;;7.13;2.33;;;;;;;;;;5094279;28;20470;-75
2021/12/12 10:47:12;;;;;;;10.73;2.92;;;;;;;;;;5068702;28;20047;-75
2021/12/12 10:49:38;;;;;;;9.43;2.50;;;;;;;;;;5091826;28;20031;-72
2021/12/12 10:52:07;;;;;;;6.85;2.10;;;;;;;;;;5092546;28;20031;-73
2021/12/12 10:54:38;;;;;;;10.30;2.17;;;;;;;;;;5089296;28;20020;-75
2021/12/12 10:57:07;;;;;;;8.60;2.03;;;;;;;;;;5094337;28;20514;-74
2021/12/12 10:59:43;;;;;;;8.15;3.17;;;;;;;;;;5092522;28;20108;-74
2021/12/12 11:02:11;;;;;;;9.15;2.97;;;;;;;;;;5095830;28;20028;-75
2021/12/12 11:04:44;;;;;;;13.63;3.08;;;;;;;;;;5092226;28;20119;-76
2021/12/12 11:07:18;;;;;;;8.90;2.70;;;;;;;;;;5091177;28;20083;-73
2021/12/12 11:10:05;;;;;;;8.15;3.45;;;;;;;;;;5093766;28;20032;-74
2021/12/12 11:12:44;;;;;;;5.63;2.40;;;;;;;;;;5090551;28;20030;-76
2021/12/12 11:15:21;;;;;;;11.18;3.03;;;;;;;;;;5092861;28;20031;-74
2021/12/12 11:17:50;;;;;;;9.98;3.92;;;;;;;;;;5096180;28;20039;-74
2021/12/12 11:20:31;;;;;;;8.88;3.72;;;;;;;;;;5093399;28;20019;-75
2021/12/12 11:23:05;;;;;;;11.68;2.97;;;;;;;;;;5090029;28;20416;-73
2021/12/12 11:25:31;;;;;;;7.38;2.35;;;;;;;;;;5094043;28;20050;-72
2021/12/12 11:27:59;;;;;;;13.30;3.90;;;;;;;;;;5097275;28;20043;-73
2021/12/12 11:30:34;;;;;;;10.40;3.08;;;;;;;;;;5094293;28;20024;-74
2021/12/12 11:33:01;;;;;;;9.65;4.03;;;;;;;;;;5092957;28;20028;-74
2021/12/12 11:35:28;;;;;;;7.30;3.45;;;;;;;;;;5092487;28;20046;-74
2021/12/12 11:38:02;;;;;;;12.57;4.18;;;;;;;;;;5090715;28;20032;-72
2021/12/12 11:40:33;;;;;;;13.45;5.80;;;;;;;;;;5091034;28;20077;-75
2021/12/12 11:43:17;;;;;;;10.73;4.15;;;;;;;;;;5087182;28;20145;-73
2021/12/12 11:45:46;;;;;;;6.93;3.47;;;;;;;;;;5093455;28;20472;-73
2021/12/12 11:48:15;;;;;;;11.50;3.78;;;;;;;;;;5089131;28;20181;-73
2021/12/12 11:50:47;;;;;;;9.27;3.60;;;;;;;;;;5099422;28;20499;-76
2021/12/12 11:53:23;;;;;;;11.18;3.70;;;;;;;;;;5092458;28;20031;-75
2021/12/12 11:56:03;;;;;;;17.63;6.03;;;;;;;;;;5095800;28;20046;-76
2021/12/12 11:58:34;;;;;;;9.95;3.72;;;;;;;;;;5091919;28;20027;-73
2021/12/12 12:01:01;;;;;;;16.13;6.95;;;;;;;;;;5087523;28;20031;-75
2021/12/12 12:03:47;;;;;;;15.90;4.88;;;;;;;;;;5095317;28;20479;-74
2021/12/12 12:06:13;;;;;;;12.15;5.25;;;;;;;;;;5094988;28;20109;-74
2021/12/12 12:08:59;;;;;;;19.95;5.93;;;;;;;;;;5093555;28;20044;-75
2021/12/12 12:11:28;;;;;;;12.18;4.82;;;;;;;;;;5088591;28;20523;-73
2021/12/12 12:14:18;;;;;;;10.10;3.55;;;;;;;;;;5092839;28;20479;-73
2021/12/12 12:16:47;;;;;;;13.10;2.97;;;;;;;;;;5075841;28;20047;-73
2021/12/12 12:19:21;;;;;;;14.65;5.18;;;;;;;;;;5091875;28;20035;-74
2021/12/12 12:22:06;;;;;;;11.68;4.35;;;;;;;;;;5093725;28;20256;-75
2021/12/12 12:24:41;;;;;;;10.80;3.15;;;;;;;;;;5094044;28;20030;-72
2021/12/12 12:27:24;;;;;;;4.90;2.17;;;;;;;;;;5091192;28;20028;-73
2021/12/12 12:29:50;;;;;;;11.77;3.65;;;;;;;;;;5094367;28;20513;-75
2021/12/12 12:32:35;;;;;;;8.80;2.45;;;;;;;;;;5091328;28;20023;-74
2021/12/12 12:35:20;;;;;;;16.30;2.70;;;;;;;;;;5096726;28;20130;-74
2021/12/12 12:38:04;;;;;;;6.10;2.10;;;;;;;;;;5091535;28;20137;-74
2021/12/12 12:40:49;;;;;;;9.73;4.20;;;;;;;;;;5095549;28;20393;-72
2021/12/12 12:43:34;;;;;;;14.90;3.65;;;;;;;;;;5090897;28;20028;-73
2021/12/12 12:46:09;;;;;;;11.02;3.55;;;;;;;;;;5092800;28;20360;-75
2021/12/12 12:48:54;;;;;;;7.57;3.08;;;;;;;;;;5089702;28;20011;-72
2021/12/12 12:51:39;;;;;;;16.52;3.13;;;;;;;;;;5092015;28;20063;-75
2021/12/12 12:54:08;;;;;;;14.75;2.58;;;;;;;;;;5091863;28;20184;-74
2021/12/12 12:56:53;;;;;;;7.65;2.80;;;;;;;;;;5092568;28;20043;-73
2021/12/12 12:59:31;;;;;;;11.23;2.65;;;;;;;;;;5096152;28;20031;-73
2021/12/12 13:02:11;;;;;;;7.38;2.40;;;;;;;;;;5092398;28;20046;-73
2021/12/12 13:04:47;;;;;;;10.80;2.67;;;;;;;;;;5088961;28;20040;-74
2021/12/12 13:07:23;;;;;;;8.68;2.33;;;;;;;;;;5092363;28;20027;-74
2021/12/12 13:10:24;;;;;;;10.38;2.40;;;;;;;;;;5091971;28;20028;-73
2021/12/12 13:13:02;;;;;;;10.63;3.00;;;;;;;;;;5013713;28;20177;-74
2021/12/12 13:15:45;;;;;;;10.35;2.72;;;;;;;;;;5081613;28;20403;-76
2021/12/12 13:18:34;;;;;;;9.23;2.00;;;;;;;;;;5091288;28;20105;-75
2021/12/12 13:21:08;;;;;;;8.93;1.95;;;;;;;;;;5078577;28;20032;-73
2021/12/12 13:23:34;;;;;;;5.85;1.65;;;;;;;;;;5093493;28;20114;-74
2021/12/12 13:26:13;;;;;;;6.28;1.83;;;;;;;;;;5090298;28;20400;-74
2021/12/12 13:28:42;;;;;;;8.38;1.95;;;;;;;;;;5089957;28;20239;-72
2021/12/12 13:31:17;;;;;;;5.43;1.23;;;;;;;;;;5091150;28;20028;-73
2021/12/12 13:33:54;;;;;;;6.32;1.40;;;;;;;;;;5087555;28;20075;-73
2021/12/12 13:36:29;;;;;;;6.13;1.23;;;;;;;;;;5091216;28;20427;-73
2021/12/12 13:38:58;;;;;;;4.15;1.40;;;;;;;;;;5075883;28;20028;-73
2021/12/12 13:41:37;;;;;;;9.55;2.15;;;;;;;;;;5091588;28;20090;-72
2021/12/12 13:44:20;;;;;;;4.20;1.10;;;;;;;;;;5090647;28;20045;-73
2021/12/12 13:47:01;;;;;;;4.18;1.40;;;;;;;;;;5087365;28;20115;-75
2021/12/12 13:49:36;;;;;;;5.47;1.10;;;;;;;;;;5088860;28;20023;-76
2021/12/12 13:52:06;;;;;;;4.03;1.40;;;;;;;;;;5094715;28;20530;-75
2021/12/12 13:54:39;;;;;;;6.20;1.55;;;;;;;;;;5090766;28;20292;-74
2021/12/12 13:57:05;;;;;;;5.32;1.45;;;;;;;;;;5092201;28;20041;-76
2021/12/12 13:59:39;;;;;;;6.25;1.33;;;;;;;;;;5092394;28;20116;-75
2021/12/12 14:02:10;;;;;;;6.45;1.35;;;;;;;;;;5093266;28;20107;-74
2021/12/12 14:04:54;;;;;;;7.88;1.50;;;;;;;;;;5089382;28;20043;-75
2021/12/12 14:07:31;;;;;;;4.63;1.42;;;;;;;;;;5091279;28;20077;-73
2021/12/12 14:09:59;;;;;;;6.63;1.60;;;;;;;;;;5089578;28;20027;-74
2021/12/12 14:12:27;;;;;;;2.53;1.25;;;;;;;;;;5088626;28;20078;-73
2021/12/12 14:14:54;;;;;;;6.25;1.60;;;;;;;;;;5093912;28;20088;-75
2021/12/12 14:17:41;;;;;;;4.68;1.63;;;;;;;;;;5093387;28;20043;-72
2021/12/12 14:20:09;;;;;;;3.03;1.40;;;;;;;;;;5080542;28;21084;-74
2021/12/12 14:22:36;;;;;;;7.28;1.48;;;;;;;;;;5070567;28;20032;-75
2021/12/12 14:25:06;;;;;;;9.75;1.95;;;;;;;;;;5087073;28;20569;-75
2021/12/12 14:27:33;;;;;;;4.03;1.52;;;;;;;;;;5091576;28;20066;-75
2021/12/12 14:30:05;;;;;;;8.35;1.60;;;;;;;;;;5088855;28;20028;-75
2021/12/12 14:32:34;;;;;;;5.78;1.60;;;;;;;;;;5083353;28;20050;-76
2021/12/12 14:35:03;;;;;;;9.23;2.03;;;;;;;;;;5081642;28;20023;-74
2021/12/12 14:37:32;;;;;;;9.07;1.92;;;;;;;;;;5086828;28;21262;-76
2021/12/12 14:40:04;;;;;;;7.18;1.60;;;;;;;;;;5090554;28;20132;-75
2021/12/12 14:42:32;;;;;;;4.03;1.15;;;;;;;;;;5091145;28;20045;-74
2021/12/12 14:45:05;;;;;;;5.63;1.67;;;;;;;;;;5087869;28;20024;-75
2021/12/12 14:47:32;;;;;;;10.57;1.80;;;;;;;;;;5088824;28;20119;-75
2021/12/12 14:50:19;;;;;;;5.97;1.30;;;;;;;;;;5108742;28;20028;-75
2021/12/12 14:52:46;;;;;;;10.98;1.50;;;;;;;;;;5087826;28;20028;-74
2021/12/12 14:55:18;;;;;;;9.45;1.50;;;;;;;;;;5088115;28;20055;-75
2021/12/12 14:57:47;;;;;;;4.88;1.50;;;;;;;;;;5092412;28;20539;-76
2021/12/12 15:00:17;;;;;;;6.10;2.05;;;;;;;;;;5088794;28;20034;-76
2021/12/12 15:02:49;;;;;;;4.88;1.63;;;;;;;;;;5091159;28;20032;-71
2021/12/12 15:05:15;;;;;;;8.13;1.95;;;;;;;;;;5093075;28;20475;-75
2021/12/12 15:07:43;;;;;;;8.38;1.80;;;;;;;;;;5094941;28;20518;-75
2021/12/12 15:10:23;;;;;;;9.50;1.55;;;;;;;;;;5087731;28;20070;-75
2021/12/12 15:12:51;;;;;;;8.13;1.58;;;;;;;;;;5091828;28;20063;-74
2021/12/12 15:15:23;;;;;;;9.65;1.90;;;;;;;;;;5091661;28;20035;-74
2021/12/12 15:17:52;;;;;;;10.43;1.70;;;;;;;;;;5095610;28;20479;-74
2021/12/12 15:20:21;;;;;;;5.95;1.63;;;;;;;;;;5090779;28;20121;-75